Time;durP1;ratioP1;P1;durP2;ratioP2;P2;SDS_P1;SDS_P2;PMS_P1;PMS_P2;Temp;Humidity;BMP_temperature;BMP_pressure;BME280_temperature;BME280_humidity;BME280_pressure;Samples;Min_cycle;Max_cycle;Signal;HPM_P1;HPM_P2
2021/10/06 00:01:31;;;;;;;14.90;13.00;;;12.50;1.00;;;;;;5002731;28;20516;-79
2021/10/06 00:03:58;;;;;;;13.87;11.80;;;12.50;1.00;;;;;;5005130;28;20968;-80
2021/10/06 00:06:25;;;;;;;13.27;11.70;;;12.60;1.00;;;;;;5001664;28;20446;-80
2021/10/06 00:08:52;;;;;;;14.17;12.20;;;12.60;1.00;;;;;;5004145;28;20934;-80
2021/10/06 00:11:20;;;;;;;11.97;10.80;;;12.60;1.00;;;;;;5004510;28;20695;-81
2021/10/06 00:13:47;;;;;;;15.23;12.37;;;12.60;1.00;;;;;;5001722;28;20472;-80
2021/10/06 00:16:15;;;;;;;13.33;11.27;;;12.60;1.00;;;;;;5002380;28;20448;-81
2021/10/06 00:18:42;;;;;;;14.73;13.13;;;12.70;1.00;;;;;;5008113;28;21468;-79
2021/10/06 00:21:08;;;;;;;12.50;11.40;;;12.70;1.00;;;;;;5002782;28;21365;-79
2021/10/06 00:23:35;;;;;;;13.00;11.70;;;12.60;1.00;;;;;;4996978;28;20468;-77
2021/10/06 00:26:03;;;;;;;13.33;11.93;;;12.70;1.00;;;;;;5004874;28;20453;-80
2021/10/06 00:28:31;;;;;;;13.20;11.90;;;12.70;1.00;;;;;;5013528;28;20462;-80
2021/10/06 00:30:59;;;;;;;13.70;12.30;;;12.60;1.00;;;;;;5004126;28;21597;-80
2021/10/06 00:33:26;;;;;;;12.03;10.93;;;12.60;1.00;;;;;;4984421;28;20442;-79
2021/10/06 00:35:54;;;;;;;13.67;11.90;;;12.50;1.00;;;;;;5002912;28;20444;-80
2021/10/06 00:38:22;;;;;;;17.00;12.00;;;12.50;1.00;;;;;;5014269;28;24010;-80
2021/10/06 00:40:48;;;;;;;12.40;11.10;;;12.40;1.00;;;;;;5020962;28;20516;-80
2021/10/06 00:43:16;;;;;;;13.03;11.80;;;12.40;1.00;;;;;;5018452;28;20489;-79
2021/10/06 00:45:45;;;;;;;12.10;10.90;;;12.30;1.00;;;;;;5023382;28;20445;-79
2021/10/06 00:48:11;;;;;;;12.33;11.03;;;12.30;1.00;;;;;;5019328;28;20491;-79
2021/10/06 00:50:38;;;;;;;12.43;11.23;;;12.20;1.00;;;;;;5020737;28;20597;-79
2021/10/06 00:53:05;;;;;;;12.17;11.00;;;12.20;1.00;;;;;;5026227;28;20536;-80
2021/10/06 00:55:32;;;;;;;10.97;9.87;;;12.20;1.00;;;;;;5023890;28;21460;-79
2021/10/06 00:57:58;;;;;;;12.27;11.07;;;12.20;1.00;;;;;;5025081;28;20418;-80
2021/10/06 01:00:25;;;;;;;11.97;10.73;;;12.20;1.00;;;;;;5022296;28;21286;-81
2021/10/06 01:02:53;;;;;;;12.30;11.00;;;12.10;1.00;;;;;;5024269;28;20462;-78
2021/10/06 01:05:20;;;;;;;12.67;11.47;;;12.10;1.00;;;;;;5022791;28;20465;-78
2021/10/06 01:07:47;;;;;;;12.70;11.33;;;12.10;1.00;;;;;;5025855;28;20472;-79
2021/10/06 01:10:14;;;;;;;13.07;11.67;;;12.00;1.00;;;;;;5027280;28;20514;-80
2021/10/06 01:12:42;;;;;;;12.93;11.57;;;12.00;1.00;;;;;;5005273;28;20462;-80
2021/10/06 01:15:11;;;;;;;11.57;10.37;;;12.00;1.00;;;;;;5011484;28;20957;-79
2021/10/06 01:17:38;;;;;;;12.57;10.50;;;12.00;1.00;;;;;;5008534;28;20462;-79
2021/10/06 01:20:08;;;;;;;13.03;11.00;;;12.00;1.00;;;;;;5011803;28;20449;-80
2021/10/06 01:22:37;;;;;;;12.53;11.30;;;12.00;1.00;;;;;;5012627;28;20461;-79
2021/10/06 01:25:09;;;;;;;12.97;11.67;;;12.00;1.00;;;;;;5011669;28;20441;-81
2021/10/06 01:27:36;;;;;;;11.93;10.83;;;12.00;1.00;;;;;;5007363;28;20454;-79
2021/10/06 01:30:04;;;;;;;12.60;11.30;;;12.10;1.00;;;;;;5010618;28;20461;-80
2021/10/06 01:32:35;;;;;;;10.90;9.77;;;12.10;1.00;;;;;;5009385;28;20466;-79
2021/10/06 01:35:03;;;;;;;10.50;9.50;;;12.20;1.00;;;;;;5012336;28;22860;-80
2021/10/06 01:37:30;;;;;;;11.27;10.00;;;12.20;1.00;;;;;;5013424;28;20464;-79
2021/10/06 01:39:58;;;;;;;12.10;10.90;;;12.20;1.00;;;;;;5011680;28;20463;-80
2021/10/06 01:42:24;;;;;;;11.07;9.97;;;12.30;1.00;;;;;;5012038;28;20450;-81
2021/10/06 01:44:51;;;;;;;10.80;9.50;;;12.30;1.00;;;;;;5012823;28;21838;-79
2021/10/06 01:47:19;;;;;;;10.70;9.70;;;12.30;1.00;;;;;;5037134;28;20442;-79
2021/10/06 01:49:47;;;;;;;10.30;9.20;;;12.40;1.00;;;;;;5024749;28;20461;-80
2021/10/06 01:52:16;;;;;;;9.73;8.67;;;12.40;1.00;;;;;;5015003;28;20469;-78
2021/10/06 01:54:42;;;;;;;10.17;9.27;;;12.40;1.00;;;;;;5010896;28;21192;-81
2021/10/06 01:57:11;;;;;;;8.90;8.00;;;12.50;1.00;;;;;;5011278;28;20963;-80
2021/10/06 01:59:38;;;;;;;10.03;8.77;;;12.50;1.00;;;;;;5009255;28;20466;-80
2021/10/06 02:02:04;;;;;;;9.33;8.43;;;12.50;1.00;;;;;;5013987;28;20425;-79
2021/10/06 02:04:31;;;;;;;8.67;7.80;;;12.60;1.00;;;;;;5015458;28;20464;-81
2021/10/06 02:06:58;;;;;;;9.67;8.70;;;12.60;1.00;;;;;;5013855;28;20466;-80
2021/10/06 02:09:24;;;;;;;9.43;8.53;;;12.60;1.00;;;;;;5013642;28;20481;-80
2021/10/06 02:11:51;;;;;;;9.73;8.80;;;12.60;1.00;;;;;;5012567;28;20457;-82
2021/10/06 02:14:19;;;;;;;9.73;8.83;;;12.70;1.00;;;;;;5012162;28;20448;-79
2021/10/06 02:16:46;;;;;;;8.87;7.97;;;12.70;1.00;;;;;;5009683;28;20462;-80
2021/10/06 02:19:13;;;;;;;9.60;8.70;;;12.70;1.00;;;;;;5013135;28;20500;-80
2021/10/06 02:21:40;;;;;;;9.70;8.27;;;12.70;1.00;;;;;;5014332;28;20465;-80
2021/10/06 02:24:06;;;;;;;8.80;8.00;;;12.70;1.00;;;;;;5010352;28;21178;-80
2021/10/06 02:26:34;;;;;;;9.20;8.30;;;12.70;1.00;;;;;;5010539;28;20473;-81
2021/10/06 02:29:01;;;;;;;8.73;7.93;;;12.70;1.00;;;;;;5010335;28;20457;-79
2021/10/06 02:31:29;;;;;;;10.17;8.47;;;12.70;1.00;;;;;;5016795;28;20472;-79
2021/10/06 02:33:56;;;;;;;9.40;7.93;;;12.70;1.00;;;;;;5021545;28;20438;-82
2021/10/06 02:36:23;;;;;;;8.70;7.87;;;12.80;1.00;;;;;;5007659;28;20424;-81
2021/10/06 02:38:49;;;;;;;9.47;8.60;;;12.80;1.00;;;;;;5012442;28;20458;-80
2021/10/06 02:41:16;;;;;;;9.13;8.23;;;12.80;1.00;;;;;;5005872;28;20537;-80
2021/10/06 02:43:43;;;;;;;8.90;7.80;;;12.80;1.00;;;;;;5010811;28;20458;-80
2021/10/06 02:46:09;;;;;;;8.87;7.97;;;12.80;1.00;;;;;;5009650;28;20445;-80
2021/10/06 02:48:37;;;;;;;8.90;8.10;;;12.80;1.00;;;;;;5008000;28;20457;-79
2021/10/06 02:51:04;;;;;;;8.40;7.60;;;12.90;1.00;;;;;;5010975;28;20548;-79
2021/10/06 02:53:31;;;;;;;8.60;7.80;;;12.90;1.00;;;;;;5010701;28;20461;-79
2021/10/06 02:55:57;;;;;;;7.70;7.00;;;12.80;1.00;;;;;;5007976;28;20984;-80
2021/10/06 02:58:24;;;;;;;8.53;7.50;;;12.80;1.00;;;;;;5011321;28;20499;-79
2021/10/06 03:00:50;;;;;;;8.47;7.63;;;12.80;1.00;;;;;;5008694;28;20472;-79
2021/10/06 03:03:17;;;;;;;7.57;6.90;;;12.80;1.00;;;;;;5018693;28;20431;-77
2021/10/06 03:05:45;;;;;;;9.33;8.43;;;12.80;1.00;;;;;;5026957;28;20454;-77
2021/10/06 03:08:12;;;;;;;7.63;6.93;;;12.90;1.00;;;;;;5004184;28;20453;-79
2021/10/06 03:10:38;;;;;;;7.57;6.87;;;12.90;1.00;;;;;;5009985;28;20457;-79
2021/10/06 03:13:05;;;;;;;7.97;7.20;;;12.80;1.00;;;;;;5006262;28;20446;-78
2021/10/06 03:15:32;;;;;;;7.83;7.03;;;12.90;1.00;;;;;;5008715;28;20465;-80
2021/10/06 03:17:59;;;;;;;8.90;8.00;;;12.90;1.00;;;;;;5004344;28;20580;-79
2021/10/06 03:20:25;;;;;;;7.73;7.13;;;12.90;1.00;;;;;;5005669;28;20471;-80
2021/10/06 03:22:53;;;;;;;8.07;7.30;;;12.90;1.00;;;;;;5005168;28;20640;-79
2021/10/06 03:25:20;;;;;;;8.10;7.30;;;12.90;1.00;;;;;;5006861;28;20891;-80
2021/10/06 03:27:47;;;;;;;7.83;7.13;;;12.90;1.00;;;;;;5008495;28;20576;-80
2021/10/06 03:30:14;;;;;;;8.90;8.00;;;12.90;1.00;;;;;;5007989;28;21638;-80
2021/10/06 03:32:40;;;;;;;8.60;7.70;;;13.00;1.00;;;;;;5003275;28;21636;-80
2021/10/06 03:35:08;;;;;;;8.40;7.50;;;13.00;1.00;;;;;;5004737;28;20422;-80
2021/10/06 03:37:36;;;;;;;8.80;8.00;;;13.10;1.00;;;;;;5006554;28;20509;-79
2021/10/06 03:40:06;;;;;;;9.37;8.53;;;13.20;1.00;;;;;;5007185;28;20508;-80
2021/10/06 03:42:32;;;;;;;10.00;8.17;;;13.20;1.00;;;;;;5006829;28;20438;-79
2021/10/06 03:44:59;;;;;;;10.50;8.87;;;13.10;1.00;;;;;;5008825;28;20441;-79
2021/10/06 03:47:26;;;;;;;9.33;8.43;;;13.20;1.00;;;;;;5007180;28;20448;-81
2021/10/06 03:49:52;;;;;;;8.77;7.97;;;13.20;1.00;;;;;;5006247;28;20500;-79
2021/10/06 03:52:19;;;;;;;9.50;8.60;;;13.20;1.00;;;;;;5006439;28;20481;-79
2021/10/06 03:54:46;;;;;;;8.67;7.80;;;13.30;1.00;;;;;;5004076;28;20528;-78
2021/10/06 03:57:14;;;;;;;9.13;8.23;;;13.30;1.00;;;;;;5003702;28;20446;-80
2021/10/06 03:59:41;;;;;;;9.80;8.80;;;13.30;1.00;;;;;;5008059;28;20473;-79
2021/10/06 04:02:07;;;;;;;9.90;8.90;;;13.40;1.00;;;;;;5006081;28;20950;-81
2021/10/06 04:04:34;;;;;;;9.23;8.40;;;13.40;1.00;;;;;;5006838;28;23011;-79
2021/10/06 04:07:00;;;;;;;8.50;7.70;;;13.40;1.00;;;;;;5010110;28;21151;-80
2021/10/06 04:09:27;;;;;;;8.70;7.90;;;13.40;1.00;;;;;;5011302;28;20478;-80
2021/10/06 04:11:54;;;;;;;8.33;7.53;;;13.40;1.00;;;;;;5003632;28;20457;-79
2021/10/06 04:14:22;;;;;;;8.50;7.70;;;13.50;1.00;;;;;;5007180;28;21380;-80
2021/10/06 04:16:49;;;;;;;9.67;8.77;;;13.50;1.00;;;;;;5007545;28;20524;-80
2021/10/06 04:19:15;;;;;;;10.00;9.07;;;13.50;1.00;;;;;;5007652;28;21099;-79
2021/10/06 04:21:42;;;;;;;8.73;7.83;;;13.50;1.00;;;;;;5005694;28;20465;-79
2021/10/06 04:24:09;;;;;;;9.23;8.33;;;13.50;1.00;;;;;;5006636;28;20417;-79
2021/10/06 04:26:36;;;;;;;8.80;7.90;;;13.50;1.00;;;;;;5001221;28;21320;-79
2021/10/06 04:29:02;;;;;;;9.57;8.67;;;13.50;1.00;;;;;;5004585;28;20444;-79
2021/10/06 04:31:30;;;;;;;10.23;9.23;;;13.50;1.00;;;;;;5006862;28;20441;-78
2021/10/06 04:33:57;;;;;;;9.93;9.03;;;13.50;1.00;;;;;;5018882;28;20455;-78
2021/10/06 04:36:24;;;;;;;8.50;7.70;;;13.50;1.00;;;;;;5002951;28;20488;-78
2021/10/06 04:38:50;;;;;;;8.60;7.77;;;13.60;1.00;;;;;;5004864;28;20454;-77
2021/10/06 04:41:17;;;;;;;10.03;9.00;;;13.50;1.00;;;;;;5002404;28;20975;-77
2021/10/06 04:43:44;;;;;;;9.60;8.70;;;13.50;1.00;;;;;;5005718;28;20975;-78
2021/10/06 04:46:10;;;;;;;10.50;8.70;;;13.50;1.00;;;;;;5015031;28;20445;-77
2021/10/06 04:48:38;;;;;;;9.40;8.40;;;13.60;1.00;;;;;;5002181;28;21214;-77
2021/10/06 04:51:05;;;;;;;10.23;9.13;;;13.50;1.00;;;;;;5005001;28;21434;-77
2021/10/06 04:53:32;;;;;;;9.67;8.77;;;13.50;1.00;;;;;;5003726;28;20449;-76
2021/10/06 04:55:58;;;;;;;10.23;8.57;;;13.40;1.00;;;;;;5004561;28;20659;-77
2021/10/06 04:58:25;;;;;;;11.10;10.00;;;13.40;1.00;;;;;;5003806;28;20473;-77
2021/10/06 05:00:52;;;;;;;10.17;9.20;;;13.50;1.00;;;;;;5007541;28;20458;-77
2021/10/06 05:03:18;;;;;;;10.47;9.47;;;13.50;1.00;;;;;;5005502;28;20437;-78
2021/10/06 05:05:46;;;;;;;12.80;11.50;;;13.50;1.00;;;;;;5011560;28;20465;-77
2021/10/06 05:08:13;;;;;;;10.23;9.33;;;13.50;1.00;;;;;;5003996;28;20461;-75
2021/10/06 05:10:40;;;;;;;10.20;8.70;;;13.50;1.00;;;;;;5000358;28;20457;-76
2021/10/06 05:13:07;;;;;;;11.27;10.10;;;13.40;1.00;;;;;;5008853;28;21336;-76
2021/10/06 05:15:33;;;;;;;10.53;9.53;;;13.40;1.00;;;;;;5005216;28;20450;-77
2021/10/06 05:18:00;;;;;;;9.43;8.53;;;13.30;1.00;;;;;;4995848;28;20449;-75
2021/10/06 05:20:27;;;;;;;10.00;8.47;;;13.30;1.00;;;;;;5007581;28;20422;-76
2021/10/06 05:22:54;;;;;;;10.20;8.63;;;13.30;1.00;;;;;;5005301;28;20473;-77
2021/10/06 05:25:21;;;;;;;9.70;8.80;;;13.30;1.00;;;;;;5007051;28;20446;-77
2021/10/06 05:27:48;;;;;;;10.00;8.33;;;13.20;1.00;;;;;;5001958;28;20453;-76
2021/10/06 05:30:15;;;;;;;9.77;8.77;;;13.20;1.00;;;;;;5003407;28;20571;-77
2021/10/06 05:32:42;;;;;;;9.23;8.33;;;13.10;1.00;;;;;;5002400;28;20445;-76
2021/10/06 05:35:10;;;;;;;9.70;8.80;;;13.00;1.00;;;;;;5003010;28;21250;-77
2021/10/06 05:37:37;;;;;;;10.00;8.97;;;13.00;1.00;;;;;;5006682;28;20501;-77
2021/10/06 05:40:06;;;;;;;9.30;8.37;;;13.00;1.00;;;;;;5018420;28;20446;-79
2021/10/06 05:42:33;;;;;;;11.80;8.17;;;13.00;1.00;;;;;;5008204;28;20465;-78
2021/10/06 05:44:59;;;;;;;8.70;7.90;;;12.90;1.00;;;;;;5005293;28;20480;-78
2021/10/06 05:47:26;;;;;;;13.23;9.10;;;12.80;1.00;;;;;;5007022;28;21025;-78
2021/10/06 05:49:54;;;;;;;12.30;9.43;;;12.80;1.00;;;;;;5006516;28;20561;-77
2021/10/06 05:52:21;;;;;;;13.23;11.50;;;12.80;1.00;;;;;;5001370;28;20461;-83
2021/10/06 05:54:48;;;;;;;9.13;8.23;;;12.70;1.00;;;;;;5005306;28;20451;-79
2021/10/06 05:57:16;;;;;;;10.53;9.50;;;12.70;1.00;;;;;;5006577;28;20461;-79
2021/10/06 05:59:42;;;;;;;9.33;8.47;;;12.70;1.00;;;;;;5007321;28;20449;-78
2021/10/06 06:02:09;;;;;;;13.43;9.40;;;12.60;1.00;;;;;;5011359;28;20449;-78
2021/10/06 06:04:36;;;;;;;9.00;8.10;;;12.60;1.00;;;;;;5010859;28;20453;-77
2021/10/06 06:07:03;;;;;;;11.53;10.40;;;12.60;1.00;;;;;;5002043;28;20469;-77
2021/10/06 06:09:29;;;;;;;9.13;8.23;;;12.50;1.00;;;;;;4995681;28;20449;-78
2021/10/06 06:11:56;;;;;;;14.57;9.70;;;12.50;1.00;;;;;;5008740;28;20470;-76
2021/10/06 06:14:24;;;;;;;10.70;8.80;;;12.50;1.00;;;;;;5000621;28;20454;-76
2021/10/06 06:16:51;;;;;;;11.73;9.63;;;12.50;1.00;;;;;;5008056;28;20469;-78
2021/10/06 06:19:18;;;;;;;8.97;8.07;;;12.50;1.00;;;;;;5007888;28;20563;-78
2021/10/06 06:21:46;;;;;;;9.20;8.40;;;12.50;1.00;;;;;;5009488;28;20444;-78
2021/10/06 06:24:12;;;;;;;10.70;9.77;;;12.50;1.00;;;;;;5008663;28;20565;-77
2021/10/06 06:26:39;;;;;;;11.60;9.40;;;12.50;1.00;;;;;;5005321;28;20472;-76
2021/10/06 06:29:06;;;;;;;10.63;9.63;;;12.50;1.00;;;;;;5017567;28;20457;-78
2021/10/06 06:31:34;;;;;;;10.70;9.60;;;12.60;1.00;;;;;;5006753;28;20457;-77
2021/10/06 06:34:00;;;;;;;10.73;9.70;;;12.60;1.00;;;;;;5008300;28;20446;-76
2021/10/06 06:36:27;;;;;;;9.93;8.97;;;12.70;1.00;;;;;;5015648;28;20477;-77
2021/10/06 06:38:54;;;;;;;10.80;9.20;;;12.70;1.00;;;;;;5025986;28;20572;-77
2021/10/06 06:41:20;;;;;;;9.70;8.70;;;12.70;1.00;;;;;;5025841;28;20533;-76
2021/10/06 06:43:47;;;;;;;9.97;9.10;;;12.70;1.00;;;;;;5033446;28;20466;-77
2021/10/06 06:46:14;;;;;;;10.67;8.90;;;12.80;1.00;;;;;;5018320;28;20456;-76
2021/10/06 06:48:42;;;;;;;9.57;7.60;;;12.90;1.00;;;;;;5018151;28;20418;-77
2021/10/06 06:51:09;;;;;;;9.77;8.00;;;13.00;1.00;;;;;;5017564;28;21327;-77
2021/10/06 06:53:36;;;;;;;11.00;9.83;;;13.00;1.00;;;;;;5012399;28;21004;-77
2021/10/06 06:56:02;;;;;;;10.20;8.43;;;13.10;1.00;;;;;;5010138;28;20458;-78
2021/10/06 06:58:29;;;;;;;9.53;7.90;;;13.20;1.00;;;;;;5020447;28;20450;-77
2021/10/06 07:00:56;;;;;;;8.03;7.23;;;13.20;1.00;;;;;;5030218;28;20508;-77
2021/10/06 07:03:23;;;;;;;10.40;7.30;;;13.30;1.00;;;;;;5025081;28;21219;-77
2021/10/06 07:05:51;;;;;;;8.30;5.40;;;13.30;1.00;;;;;;5013224;28;20461;-77
2021/10/06 07:08:18;;;;;;;7.13;5.17;;;13.30;1.00;;;;;;5019241;28;21236;-77
2021/10/06 07:10:44;;;;;;;5.37;4.60;;;13.30;1.00;;;;;;5014511;28;20473;-77
2021/10/06 07:13:11;;;;;;;7.37;4.47;;;13.30;1.00;;;;;;5020570;28;21250;-76
2021/10/06 07:15:37;;;;;;;5.83;4.20;;;13.30;1.00;;;;;;5017441;28;20465;-78
2021/10/06 07:18:04;;;;;;;6.10;4.80;;;13.40;1.00;;;;;;5014651;28;20437;-77
2021/10/06 07:20:31;;;;;;;5.03;4.03;;;13.50;1.00;;;;;;5014219;28;20529;-77
2021/10/06 07:22:59;;;;;;;4.73;3.53;;;13.60;1.00;;;;;;5014995;28;20489;-78
2021/10/06 07:25:26;;;;;;;5.23;3.20;;;13.70;1.00;;;;;;5018524;28;20458;-77
2021/10/06 07:27:52;;;;;;;3.90;3.53;;;13.70;1.00;;;;;;5019805;28;20421;-77
2021/10/06 07:30:19;;;;;;;3.90;2.53;;;13.80;1.00;;;;;;5018588;28;20497;-78
2021/10/06 07:32:46;;;;;;;6.20;3.40;;;13.90;1.00;;;;;;5021409;28;20524;-78
2021/10/06 07:35:13;;;;;;;3.63;3.13;;;14.00;1.00;;;;;;5020786;28;20462;-77
2021/10/06 07:37:40;;;;;;;3.93;3.40;;;14.10;1.00;;;;;;5018316;28;20517;-77
2021/10/06 07:40:09;;;;;;;5.83;3.20;;;14.10;1.00;;;;;;5017786;28;20449;-77
2021/10/06 07:42:36;;;;;;;5.60;2.83;;;14.30;1.00;;;;;;5012996;28;20872;-78
2021/10/06 07:45:03;;;;;;;4.73;2.90;;;14.30;1.00;;;;;;5017188;28;21622;-77
2021/10/06 07:47:30;;;;;;;4.90;3.60;;;14.40;1.00;;;;;;5016527;28;20449;-77
2021/10/06 07:49:56;;;;;;;6.40;4.17;;;14.50;1.00;;;;;;5016761;28;20477;-77
2021/10/06 07:52:23;;;;;;;3.80;2.70;;;14.60;1.00;;;;;;5014126;28;20553;-77
2021/10/06 07:54:50;;;;;;;3.40;1.97;;;14.70;1.00;;;;;;5018187;28;20468;-77
2021/10/06 07:57:17;;;;;;;4.20;2.40;;;14.70;1.00;;;;;;5019785;28;20485;-77
2021/10/06 07:59:44;;;;;;;3.60;2.00;;;14.70;1.00;;;;;;5017645;28;20460;-77
2021/10/06 08:02:11;;;;;;;3.13;2.10;;;14.70;1.00;;;;;;5024133;28;20453;-76
2021/10/06 08:04:39;;;;;;;3.40;2.03;;;14.70;1.00;;;;;;5024367;28;20488;-77
2021/10/06 08:07:05;;;;;;;5.63;2.93;;;14.80;1.00;;;;;;5021455;28;20475;-78
2021/10/06 08:09:32;;;;;;;4.10;2.43;;;14.90;1.00;;;;;;5017777;28;20447;-78
2021/10/06 08:12:00;;;;;;;3.30;2.50;;;15.00;1.00;;;;;;5017647;28;20463;-76
2021/10/06 08:14:27;;;;;;;3.93;2.07;;;15.10;1.00;;;;;;5021217;28;20527;-76
2021/10/06 08:16:55;;;;;;;4.47;2.70;;;15.10;1.00;;;;;;5011746;28;20426;-77
2021/10/06 08:19:22;;;;;;;3.43;1.80;;;15.20;1.00;;;;;;5016637;28;20529;-77
2021/10/06 08:21:49;;;;;;;4.23;1.73;;;15.20;1.00;;;;;;5007852;28;20447;-76
2021/10/06 08:24:15;;;;;;;3.43;2.23;;;15.20;1.00;;;;;;5017881;28;21732;-76
2021/10/06 08:26:42;;;;;;;2.30;1.67;;;15.30;1.00;;;;;;5013443;28;20458;-77
2021/10/06 08:29:09;;;;;;;3.10;1.97;;;15.30;1.00;;;;;;5013737;28;20448;-77
2021/10/06 08:31:37;;;;;;;3.30;1.80;;;15.50;1.00;;;;;;5014537;28;20474;-77
2021/10/06 08:34:03;;;;;;;17.93;4.43;;;15.60;1.00;;;;;;5013119;28;20538;-77
2021/10/06 08:36:31;;;;;;;5.33;2.97;;;15.60;1.00;;;;;;5015993;28;20491;-76
2021/10/06 08:38:58;;;;;;;16.97;12.43;;;15.80;1.00;;;;;;5020090;28;20420;-77
2021/10/06 08:41:25;;;;;;;4.37;2.33;;;16.20;1.00;;;;;;5014853;28;20465;-77
2021/10/06 08:43:52;;;;;;;3.40;1.80;;;17.10;1.00;;;;;;5022891;28;20956;-77
2021/10/06 08:46:22;;;;;;;2.73;1.93;;;18.50;1.00;;;;;;5035274;28;20452;-78
2021/10/06 08:48:52;;;;;;;4.90;1.87;;;20.00;1.00;;;;;;5016252;28;20439;-77
2021/10/06 08:51:19;;;;;;;6.30;2.33;;;21.50;1.00;;;;;;5022740;28;20484;-77
2021/10/06 08:53:46;;;;;;;4.00;1.70;;;22.90;1.00;;;;;;5019352;28;20505;-77
2021/10/06 08:56:12;;;;;;;3.23;1.30;;;23.90;1.00;;;;;;5015816;28;20462;-78
2021/10/06 08:58:39;;;;;;;3.93;1.30;;;24.30;1.00;;;;;;5019460;28;20447;-80
2021/10/06 09:01:06;;;;;;;4.93;1.60;;;24.70;1.00;;;;;;5006832;28;20463;-78
2021/10/06 09:03:33;;;;;;;4.03;2.03;;;25.40;1.00;;;;;;5018157;28;20469;-77
2021/10/06 09:06:04;;;;;;;3.50;1.50;;;26.10;1.00;;;;;;5013199;28;20421;-78
2021/10/06 09:08:32;;;;;;;3.53;1.70;;;26.80;1.00;;;;;;5033911;28;20446;-78
2021/10/06 09:11:00;;;;;;;3.40;3.10;;;26.50;1.00;;;;;;5015735;28;20513;-77
2021/10/06 09:13:28;;;;;;;3.30;1.87;;;26.40;1.00;;;;;;5015018;28;21206;-77
2021/10/06 09:15:56;;;;;;;5.90;2.47;;;26.60;1.00;;;;;;5012925;28;20447;-78
2021/10/06 09:18:24;;;;;;;5.87;2.20;;;26.30;1.00;;;;;;5016564;28;21023;-78
2021/10/06 09:20:52;;;;;;;5.07;1.67;;;25.80;1.00;;;;;;5014551;28;21220;-78
2021/10/06 09:23:22;;;;;;;8.03;2.40;;;25.90;1.00;;;;;;5018320;28;20458;-78
2021/10/06 09:25:53;;;;;;;3.17;1.43;;;25.90;1.00;;;;;;5015166;28;20654;-79
2021/10/06 09:28:25;;;;;;;6.30;2.40;;;26.00;1.00;;;;;;5014827;28;20442;-79
2021/10/06 09:30:53;;;;;;;3.50;1.70;;;25.10;1.00;;;;;;5017889;28;21240;-78
2021/10/06 09:33:20;;;;;;;4.90;3.43;;;24.10;1.00;;;;;;5013152;28;20530;-77
2021/10/06 09:35:50;;;;;;;4.50;1.60;;;22.50;1.00;;;;;;5026778;28;20513;-78
2021/10/06 09:38:17;;;;;;;4.97;2.40;;;21.20;1.00;;;;;;5017063;28;21625;-80
2021/10/06 09:40:45;;;;;;;3.83;1.60;;;20.90;1.00;;;;;;5025878;28;20469;-78
2021/10/06 09:43:12;;;;;;;4.07;1.93;;;20.90;1.00;;;;;;5021480;28;20482;-78
2021/10/06 09:45:38;;;;;;;3.80;1.80;;;20.90;1.00;;;;;;5020957;28;20453;-78
2021/10/06 09:48:08;;;;;;;3.20;1.70;;;20.50;1.00;;;;;;5017245;28;20811;-78
2021/10/06 09:50:38;;;;;;;4.87;1.93;;;20.10;1.00;;;;;;5016007;28;20975;-78
2021/10/06 09:53:07;;;;;;;3.00;1.60;;;19.80;1.00;;;;;;5012801;28;20481;-77
2021/10/06 09:55:35;;;;;;;4.40;1.93;;;19.40;1.00;;;;;;5015211;28;20422;-78
2021/10/06 09:58:03;;;;;;;2.37;1.10;;;19.20;1.00;;;;;;5010444;28;20465;-77
2021/10/06 10:00:30;;;;;;;3.80;1.40;;;19.10;1.00;;;;;;5015874;28;20544;-78
2021/10/06 10:02:58;;;;;;;2.50;1.30;;;19.60;1.00;;;;;;5022368;28;20472;-77
2021/10/06 10:05:25;;;;;;;5.63;2.70;;;20.10;1.00;;;;;;5013903;28;20562;-77
2021/10/06 10:07:53;;;;;;;4.70;1.30;;;20.40;1.00;;;;;;5010283;28;20454;-78
2021/10/06 10:10:20;;;;;;;3.00;1.70;;;21.30;1.00;;;;;;5014123;28;20465;-76
2021/10/06 10:12:48;;;;;;;2.30;1.33;;;23.00;1.00;;;;;;5016646;28;20459;-77
2021/10/06 10:15:19;;;;;;;3.50;1.70;;;24.40;1.00;;;;;;5022274;28;20592;-77
2021/10/06 10:17:51;;;;;;;3.30;1.27;;;24.10;1.00;;;;;;5018112;28;20466;-77
2021/10/06 10:20:18;;;;;;;4.07;1.53;;;24.00;1.00;;;;;;5025874;28;20462;-79
2021/10/06 10:22:48;;;;;;;4.27;1.47;;;23.70;1.00;;;;;;5015170;28;21552;-78
2021/10/06 10:25:18;;;;;;;4.33;1.40;;;24.10;1.00;;;;;;5023479;28;20514;-79
2021/10/06 10:28:03;;;;;;;3.50;1.80;;;25.10;1.00;;;;;;5017947;28;20449;-77
2021/10/06 10:30:33;;;;;;;2.63;1.33;;;26.00;1.00;;;;;;5023341;28;20472;-79
2021/10/06 10:33:00;;;;;;;3.33;1.33;;;24.90;1.00;;;;;;5022706;28;20466;-76
2021/10/06 10:35:36;;;;;;;3.27;1.20;;;23.50;1.00;;;;;;5033842;28;20456;-75
2021/10/06 10:38:11;;;;;;;5.57;2.40;;;22.10;1.00;;;;;;5024379;28;20411;-77
2021/10/06 10:40:42;;;;;;;7.93;2.00;;;21.50;1.00;;;;;;5030418;28;20577;-77
2021/10/06 10:43:10;;;;;;;2.53;1.67;;;21.90;1.00;;;;;;5023757;28;20436;-78
2021/10/06 10:45:41;;;;;;;2.20;1.30;;;22.60;1.00;;;;;;5025120;28;21194;-77
2021/10/06 10:48:09;;;;;;;2.77;1.27;;;24.10;1.00;;;;;;5024812;28;21174;-78
2021/10/06 10:51:07;;;;;;;3.20;1.50;;;25.60;1.00;;;;;;5019320;28;20461;-80
2021/10/06 10:54:09;;;;;;;3.77;1.20;;;26.40;1.00;;;;;;5013816;28;20459;-78
2021/10/06 10:56:44;;;;;;;4.47;1.17;;;24.90;1.00;;;;;;4977776;28;21535;-76
2021/10/06 10:59:13;;;;;;;3.17;1.20;;;23.30;1.00;;;;;;5013096;28;20489;-78
2021/10/06 11:01:44;;;;;;;1.50;1.03;;;22.90;1.00;;;;;;5009318;28;20559;-78
2021/10/06 11:04:12;;;;;;;5.70;1.50;;;23.90;1.00;;;;;;5014331;28;20588;-77
2021/10/06 11:06:41;;;;;;;3.40;1.63;;;26.40;1.00;;;;;;5011545;28;20465;-83
2021/10/06 11:09:45;;;;;;;2.50;1.23;;;28.80;1.00;;;;;;5014504;28;20740;-78
2021/10/06 11:12:41;;;;;;;3.47;1.60;;;30.00;1.00;;;;;;5008332;28;20538;-78
2021/10/06 11:15:30;;;;;;;3.63;1.20;;;30.20;1.00;;;;;;5015349;28;20536;-78
2021/10/06 11:18:24;;;;;;;5.40;1.60;;;28.30;1.00;;;;;;5008589;28;20440;-78
2021/10/06 11:21:04;;;;;;;2.50;1.30;;;26.40;1.00;;;;;;5010108;28;20447;-78
2021/10/06 11:23:58;;;;;;;4.70;1.67;;;25.10;1.00;;;;;;5013253;28;21264;-78
2021/10/06 11:26:34;;;;;;;2.73;1.40;;;25.00;1.00;;;;;;5014355;28;20461;-79
2021/10/06 11:29:04;;;;;;;2.53;1.47;;;25.70;1.00;;;;;;5010687;28;20512;-78
2021/10/06 11:31:33;;;;;;;2.73;1.50;;;26.60;1.00;;;;;;5014927;28;20587;-78
2021/10/06 11:34:03;;;;;;;3.63;1.53;;;27.40;1.00;;;;;;5009030;28;21201;-78
2021/10/06 11:36:30;;;;;;;3.30;1.90;;;27.10;1.00;;;;;;5016950;28;20451;-76
2021/10/06 11:39:02;;;;;;;5.50;2.20;;;26.70;1.00;;;;;;5009827;28;20469;-77
2021/10/06 11:41:29;;;;;;;3.80;2.10;;;26.00;1.00;;;;;;5022818;28;20560;-79
2021/10/06 11:43:56;;;;;;;3.10;1.27;;;24.90;1.00;;;;;;5012153;28;20450;-77
2021/10/06 11:46:25;;;;;;;5.43;2.40;;;24.00;1.00;;;;;;5009645;28;20464;-78
2021/10/06 11:48:55;;;;;;;3.10;1.20;;;23.40;1.00;;;;;;5006635;28;20435;-76
2021/10/06 11:51:44;;;;;;;2.50;1.13;;;22.80;1.00;;;;;;5011380;28;20469;-78
2021/10/06 11:54:11;;;;;;;3.63;1.33;;;22.10;1.00;;;;;;5014794;28;20470;-80
2021/10/06 11:56:38;;;;;;;6.00;2.27;;;21.30;1.00;;;;;;5008596;28;21061;-77
2021/10/06 11:59:07;;;;;;;7.13;1.27;;;20.50;1.00;;;;;;5013326;28;20433;-78
2021/10/06 12:01:33;;;;;;;2.63;1.30;;;20.20;1.00;;;;;;5008905;28;20461;-79
2021/10/06 12:04:11;;;;;;;2.33;1.03;;;20.00;1.00;;;;;;5016632;28;20455;-78
2021/10/06 12:06:38;;;;;;;3.13;1.30;;;19.90;1.00;;;;;;5010410;28;20501;-78
2021/10/06 12:09:10;;;;;;;3.47;1.50;;;19.70;1.00;;;;;;5013237;28;20461;-77
2021/10/06 12:11:41;;;;;;;5.00;1.23;;;19.50;1.00;;;;;;5010924;28;21417;-77
2021/10/06 12:14:27;;;;;;;2.57;1.43;;;19.30;1.00;;;;;;5011506;28;20461;-77
2021/10/06 12:17:10;;;;;;;2.33;1.03;;;19.40;1.00;;;;;;5008538;28;22362;-77
2021/10/06 12:19:38;;;;;;;4.07;1.50;;;19.50;1.00;;;;;;5013763;28;20548;-77
2021/10/06 12:22:07;;;;;;;2.23;1.47;;;19.40;1.00;;;;;;5010496;28;20449;-78
2021/10/06 12:24:39;;;;;;;4.40;1.20;;;19.60;1.00;;;;;;5007362;28;21452;-79
2021/10/06 12:27:06;;;;;;;2.23;0.90;;;20.20;1.00;;;;;;5016796;28;20481;-80
2021/10/06 12:29:33;;;;;;;2.20;1.00;;;20.80;1.00;;;;;;5015661;28;22699;-78
2021/10/06 12:32:15;;;;;;;3.07;1.50;;;21.10;1.00;;;;;;5012359;28;20493;-78
2021/10/06 12:34:42;;;;;;;3.07;1.47;;;21.10;1.00;;;;;;5012679;28;20491;-78
2021/10/06 12:37:12;;;;;;;4.37;1.50;;;20.70;1.00;;;;;;5012264;28;21018;-78
2021/10/06 12:39:40;;;;;;;3.67;1.40;;;20.50;1.00;;;;;;5014478;28;20466;-78
2021/10/06 12:42:08;;;;;;;3.83;1.67;;;20.20;1.00;;;;;;5006717;28;20471;-77
2021/10/06 12:44:41;;;;;;;4.37;0.90;;;20.00;1.00;;;;;;5013870;28;20763;-77
2021/10/06 12:47:11;;;;;;;2.20;1.40;;;19.70;1.00;;;;;;5017956;28;20467;-77
2021/10/06 12:49:46;;;;;;;3.10;1.47;;;19.50;1.00;;;;;;5019073;28;20687;-77
2021/10/06 12:52:21;;;;;;;2.07;1.07;;;19.60;1.00;;;;;;5021769;28;20450;-78
2021/10/06 12:55:04;;;;;;;4.23;1.50;;;19.60;1.00;;;;;;5026211;28;20537;-78
2021/10/06 12:57:31;;;;;;;3.37;1.60;;;19.50;1.00;;;;;;5018793;28;20485;-78
2021/10/06 12:59:58;;;;;;;2.63;1.40;;;19.50;1.00;;;;;;5010005;28;20445;-78